sensor_id;sensor_type;location;lat;lon;timestamp;temperature;humidity
36594;DHT22;22603;47.900;8.146;2022-10-31T00:02:37;6.10;99.90
36594;DHT22;22603;47.900;8.146;2022-10-31T00:05:24;6.10;99.90
36594;DHT22;22603;47.900;8.146;2022-10-31T00:08:11;6.00;99.90
36594;DHT22;22603;47.900;8.146;2022-10-31T00:11:01;6.00;99.90
36594;DHT22;22603;47.900;8.146;2022-10-31T00:13:48;6.00;99.90
36594;DHT22;22603;47.900;8.146;2022-10-31T00:16:35;6.00;99.90
36594;DHT22;22603;47.900;8.146;2022-10-31T00:19:22;6.00;99.90
36594;DHT22;22603;47.900;8.146;2022-10-31T00:22:09;6.00;99.90
36594;DHT22;22603;47.900;8.146;2022-10-31T00:24:56;5.90;99.90
36594;DHT22;22603;47.900;8.146;2022-10-31T00:27:44;5.90;99.90
36594;DHT22;22603;47.900;8.146;2022-10-31T00:30:33;5.90;99.90
36594;DHT22;22603;47.900;8.146;2022-10-31T00:33:20;5.90;99.90
36594;DHT22;22603;47.900;8.146;2022-10-31T00:36:10;5.90;99.90
36594;DHT22;22603;47.900;8.146;2022-10-31T00:38:58;5.90;99.90
36594;DHT22;22603;47.900;8.146;2022-10-31T00:41:45;5.80;99.90
36594;DHT22;22603;47.900;8.146;2022-10-31T00:44:33;5.80;99.90
36594;DHT22;22603;47.900;8.146;2022-10-31T00:47:20;5.80;99.90
36594;DHT22;22603;47.900;8.146;2022-10-31T00:50:08;5.80;99.90
36594;DHT22;22603;47.900;8.146;2022-10-31T00:52:55;5.80;99.90
36594;DHT22;22603;47.900;8.146;2022-10-31T00:55:42;5.70;99.90
36594;DHT22;22603;47.900;8.146;2022-10-31T00:58:29;5.70;99.90
36594;DHT22;22603;47.900;8.146;2022-10-31T01:01:17;5.70;99.90
36594;DHT22;22603;47.900;8.146;2022-10-31T01:04:04;5.70;99.90
36594;DHT22;22603;47.900;8.146;2022-10-31T01:06:51;5.70;99.90
36594;DHT22;22603;47.900;8.146;2022-10-31T01:09:38;5.70;99.90
36594;DHT22;22603;47.900;8.146;2022-10-31T01:12:25;5.60;99.90
36594;DHT22;22603;47.900;8.146;2022-10-31T01:15:13;5.60;99.90
36594;DHT22;22603;47.900;8.146;2022-10-31T01:18:02;5.60;99.90
36594;DHT22;22603;47.900;8.146;2022-10-31T01:20:57;5.50;99.90
36594;DHT22;22603;47.900;8.146;2022-10-31T01:23:44;5.50;99.90
36594;DHT22;22603;47.900;8.146;2022-10-31T01:26:32;5.50;99.90
36594;DHT22;22603;47.900;8.146;2022-10-31T01:29:20;5.40;99.90
36594;DHT22;22603;47.900;8.146;2022-10-31T01:32:06;5.40;99.90
36594;DHT22;22603;47.900;8.146;2022-10-31T01:34:55;5.40;99.90
36594;DHT22;22603;47.900;8.146;2022-10-31T01:37:42;5.40;99.90
36594;DHT22;22603;47.900;8.146;2022-10-31T01:40:29;5.30;99.90
36594;DHT22;22603;47.900;8.146;2022-10-31T01:43:17;5.30;99.90
36594;DHT22;22603;47.900;8.146;2022-10-31T01:46:08;5.30;99.90
36594;DHT22;22603;47.900;8.146;2022-10-31T01:48:57;5.30;99.90
36594;DHT22;22603;47.900;8.146;2022-10-31T01:51:49;5.30;99.90
36594;DHT22;22603;47.900;8.146;2022-10-31T01:54:40;5.20;99.90
36594;DHT22;22603;47.900;8.146;2022-10-31T01:57:29;5.20;99.90
36594;DHT22;22603;47.900;8.146;2022-10-31T02:00:18;5.20;99.90
36594;DHT22;22603;47.900;8.146;2022-10-31T02:03:06;5.20;99.90
36594;DHT22;22603;47.900;8.146;2022-10-31T02:05:54;5.20;99.90
36594;DHT22;22603;47.900;8.146;2022-10-31T02:08:43;5.20;99.90
36594;DHT22;22603;47.900;8.146;2022-10-31T02:11:31;5.10;99.90
36594;DHT22;22603;47.900;8.146;2022-10-31T02:14:21;5.10;99.90
36594;DHT22;22603;47.900;8.146;2022-10-31T02:17:09;5.10;99.90
36594;DHT22;22603;47.900;8.146;2022-10-31T02:20:01;5.10;99.90
36594;DHT22;22603;47.900;8.146;2022-10-31T02:23:27;5.10;99.90
36594;DHT22;22603;47.900;8.146;2022-10-31T02:26:54;5.10;99.90
36594;DHT22;22603;47.900;8.146;2022-10-31T02:30:03;5.10;99.90
36594;DHT22;22603;47.900;8.146;2022-10-31T02:33:05;5.00;99.90
36594;DHT22;22603;47.900;8.146;2022-10-31T02:36:24;5.00;99.90
36594;DHT22;22603;47.900;8.146;2022-10-31T02:39:30;5.00;99.90
36594;DHT22;22603;47.900;8.146;2022-10-31T02:42:28;5.00;99.90
36594;DHT22;22603;47.900;8.146;2022-10-31T02:45:24;5.00;99.90
36594;DHT22;22603;47.900;8.146;2022-10-31T02:48:18;5.00;99.90
36594;DHT22;22603;47.900;8.146;2022-10-31T02:51:06;5.00;99.90
36594;DHT22;22603;47.900;8.146;2022-10-31T02:53:54;4.90;99.90
36594;DHT22;22603;47.900;8.146;2022-10-31T02:56:41;4.90;99.90
36594;DHT22;22603;47.900;8.146;2022-10-31T02:59:28;4.90;99.90
36594;DHT22;22603;47.900;8.146;2022-10-31T03:02:43;4.90;99.90
36594;DHT22;22603;47.900;8.146;2022-10-31T03:05:41;4.90;99.90
36594;DHT22;22603;47.900;8.146;2022-10-31T03:08:35;4.90;99.90
36594;DHT22;22603;47.900;8.146;2022-10-31T03:11:39;4.90;99.90
36594;DHT22;22603;47.900;8.146;2022-10-31T03:14:34;4.80;99.90
36594;DHT22;22603;47.900;8.146;2022-10-31T03:17:27;4.80;99.90
36594;DHT22;22603;47.900;8.146;2022-10-31T03:20:21;4.80;99.90
36594;DHT22;22603;47.900;8.146;2022-10-31T03:23:15;4.80;99.90
36594;DHT22;22603;47.900;8.146;2022-10-31T03:26:06;4.80;99.90
36594;DHT22;22603;47.900;8.146;2022-10-31T03:28:56;4.80;99.90
36594;DHT22;22603;47.900;8.146;2022-10-31T03:31:47;4.80;99.90
36594;DHT22;22603;47.900;8.146;2022-10-31T03:34:37;4.80;99.90
36594;DHT22;22603;47.900;8.146;2022-10-31T03:37:27;4.80;99.90
36594;DHT22;22603;47.900;8.146;2022-10-31T03:40:19;4.80;99.90
36594;DHT22;22603;47.900;8.146;2022-10-31T03:43:10;4.80;99.90
36594;DHT22;22603;47.900;8.146;2022-10-31T03:45:59;4.70;99.90
36594;DHT22;22603;47.900;8.146;2022-10-31T03:48:48;4.70;99.90
36594;DHT22;22603;47.900;8.146;2022-10-31T03:51:39;4.70;99.90
36594;DHT22;22603;47.900;8.146;2022-10-31T03:54:33;4.70;99.90
36594;DHT22;22603;47.900;8.146;2022-10-31T03:57:27;4.70;99.90
36594;DHT22;22603;47.900;8.146;2022-10-31T04:00:15;4.70;99.90
36594;DHT22;22603;47.900;8.146;2022-10-31T04:03:05;4.70;99.90
36594;DHT22;22603;47.900;8.146;2022-10-31T04:05:56;4.70;99.90
36594;DHT22;22603;47.900;8.146;2022-10-31T04:08:49;4.70;99.90
36594;DHT22;22603;47.900;8.146;2022-10-31T04:11:42;4.70;99.90
36594;DHT22;22603;47.900;8.146;2022-10-31T04:14:34;4.70;99.90
36594;DHT22;22603;47.900;8.146;2022-10-31T04:17:26;4.70;99.90
36594;DHT22;22603;47.900;8.146;2022-10-31T04:20:16;4.60;99.90
36594;DHT22;22603;47.900;8.146;2022-10-31T04:23:03;4.70;99.90
36594;DHT22;22603;47.900;8.146;2022-10-31T04:25:55;4.60;99.90
36594;DHT22;22603;47.900;8.146;2022-10-31T04:28:42;4.60;99.90
36594;DHT22;22603;47.900;8.146;2022-10-31T04:31:29;4.50;99.90
36594;DHT22;22603;47.900;8.146;2022-10-31T04:34:16;4.60;99.90
36594;DHT22;22603;47.900;8.146;2022-10-31T04:37:03;4.60;99.90
36594;DHT22;22603;47.900;8.146;2022-10-31T04:39:50;4.60;99.90
36594;DHT22;22603;47.900;8.146;2022-10-31T04:42:37;4.60;99.90
36594;DHT22;22603;47.900;8.146;2022-10-31T04:45:24;4.60;99.90
36594;DHT22;22603;47.900;8.146;2022-10-31T04:48:12;4.50;99.90
36594;DHT22;22603;47.900;8.146;2022-10-31T04:51:00;4.50;99.90
36594;DHT22;22603;47.900;8.146;2022-10-31T04:53:46;4.50;99.90
36594;DHT22;22603;47.900;8.146;2022-10-31T04:56:33;4.50;99.90
36594;DHT22;22603;47.900;8.146;2022-10-31T04:59:20;4.50;99.90
36594;DHT22;22603;47.900;8.146;2022-10-31T05:02:08;4.50;99.90
36594;DHT22;22603;47.900;8.146;2022-10-31T05:04:56;4.50;99.90
36594;DHT22;22603;47.900;8.146;2022-10-31T05:07:45;4.40;99.90
36594;DHT22;22603;47.900;8.146;2022-10-31T05:10:32;4.40;99.90
36594;DHT22;22603;47.900;8.146;2022-10-31T05:13:19;4.40;99.90
36594;DHT22;22603;47.900;8.146;2022-10-31T05:16:10;4.40;99.90
36594;DHT22;22603;47.900;8.146;2022-10-31T05:18:57;4.40;99.90
36594;DHT22;22603;47.900;8.146;2022-10-31T05:21:46;4.30;99.90
36594;DHT22;22603;47.900;8.146;2022-10-31T05:24:33;4.30;99.90
36594;DHT22;22603;47.900;8.146;2022-10-31T05:27:21;4.30;99.90
36594;DHT22;22603;47.900;8.146;2022-10-31T05:30:09;4.40;99.90
36594;DHT22;22603;47.900;8.146;2022-10-31T05:32:57;4.30;99.90
36594;DHT22;22603;47.900;8.146;2022-10-31T05:35:44;4.30;99.90
36594;DHT22;22603;47.900;8.146;2022-10-31T05:38:32;4.30;99.90
36594;DHT22;22603;47.900;8.146;2022-10-31T05:41:19;4.30;99.90
36594;DHT22;22603;47.900;8.146;2022-10-31T05:44:06;4.40;99.90
36594;DHT22;22603;47.900;8.146;2022-10-31T05:46:53;4.30;99.90
36594;DHT22;22603;47.900;8.146;2022-10-31T05:49:40;4.30;99.90
36594;DHT22;22603;47.900;8.146;2022-10-31T05:52:26;4.30;99.90
36594;DHT22;22603;47.900;8.146;2022-10-31T05:55:15;4.30;99.90
36594;DHT22;22603;47.900;8.146;2022-10-31T05:58:02;4.30;99.90
36594;DHT22;22603;47.900;8.146;2022-10-31T06:00:49;4.20;99.90
36594;DHT22;22603;47.900;8.146;2022-10-31T06:03:36;4.30;99.90
36594;DHT22;22603;47.900;8.146;2022-10-31T06:06:27;4.30;99.90
36594;DHT22;22603;47.900;8.146;2022-10-31T06:09:14;4.20;99.90
36594;DHT22;22603;47.900;8.146;2022-10-31T06:12:03;4.30;99.90
36594;DHT22;22603;47.900;8.146;2022-10-31T06:14:50;4.30;99.90
36594;DHT22;22603;47.900;8.146;2022-10-31T06:17:37;4.30;99.90
36594;DHT22;22603;47.900;8.146;2022-10-31T06:20:24;4.30;99.90
36594;DHT22;22603;47.900;8.146;2022-10-31T06:23:10;4.30;99.90
36594;DHT22;22603;47.900;8.146;2022-10-31T06:25:57;4.30;99.90
36594;DHT22;22603;47.900;8.146;2022-10-31T06:28:47;4.30;99.90
36594;DHT22;22603;47.900;8.146;2022-10-31T06:31:33;4.40;99.90
36594;DHT22;22603;47.900;8.146;2022-10-31T06:34:20;4.50;99.90
36594;DHT22;22603;47.900;8.146;2022-10-31T06:37:07;4.50;99.90
36594;DHT22;22603;47.900;8.146;2022-10-31T06:39:56;4.60;99.90
36594;DHT22;22603;47.900;8.146;2022-10-31T06:42:44;4.70;99.90
36594;DHT22;22603;47.900;8.146;2022-10-31T06:45:32;4.80;99.90
36594;DHT22;22603;47.900;8.146;2022-10-31T06:48:18;4.90;99.90
36594;DHT22;22603;47.900;8.146;2022-10-31T06:51:06;5.00;99.90
36594;DHT22;22603;47.900;8.146;2022-10-31T06:53:53;5.10;99.90
36594;DHT22;22603;47.900;8.146;2022-10-31T06:56:40;5.20;99.90
36594;DHT22;22603;47.900;8.146;2022-10-31T06:59:27;5.40;99.90
36594;DHT22;22603;47.900;8.146;2022-10-31T07:02:16;5.50;99.90
36594;DHT22;22603;47.900;8.146;2022-10-31T07:05:03;5.60;99.90
36594;DHT22;22603;47.900;8.146;2022-10-31T07:07:52;5.70;99.90
36594;DHT22;22603;47.900;8.146;2022-10-31T07:10:41;5.90;99.90
36594;DHT22;22603;47.900;8.146;2022-10-31T07:13:31;6.00;99.90
36594;DHT22;22603;47.900;8.146;2022-10-31T07:16:18;6.20;99.90
36594;DHT22;22603;47.900;8.146;2022-10-31T07:19:06;6.40;99.90
36594;DHT22;22603;47.900;8.146;2022-10-31T07:21:52;6.50;99.90
36594;DHT22;22603;47.900;8.146;2022-10-31T07:24:39;6.70;99.90
36594;DHT22;22603;47.900;8.146;2022-10-31T07:27:26;6.80;99.90
36594;DHT22;22603;47.900;8.146;2022-10-31T07:30:14;7.00;99.90
36594;DHT22;22603;47.900;8.146;2022-10-31T07:33:02;7.20;99.90
36594;DHT22;22603;47.900;8.146;2022-10-31T07:35:51;7.50;99.90
36594;DHT22;22603;47.900;8.146;2022-10-31T07:38:37;7.80;99.90
36594;DHT22;22603;47.900;8.146;2022-10-31T07:41:24;8.00;99.90
36594;DHT22;22603;47.900;8.146;2022-10-31T07:44:12;8.20;99.90
36594;DHT22;22603;47.900;8.146;2022-10-31T07:46:58;8.40;99.90
36594;DHT22;22603;47.900;8.146;2022-10-31T07:49:45;8.60;99.90
36594;DHT22;22603;47.900;8.146;2022-10-31T07:52:33;8.90;99.90
36594;DHT22;22603;47.900;8.146;2022-10-31T07:55:20;9.10;99.90
36594;DHT22;22603;47.900;8.146;2022-10-31T07:58:08;9.40;99.90
36594;DHT22;22603;47.900;8.146;2022-10-31T08:00:57;9.60;99.90
36594;DHT22;22603;47.900;8.146;2022-10-31T08:03:46;10.10;99.90
36594;DHT22;22603;47.900;8.146;2022-10-31T08:06:33;10.50;99.90
36594;DHT22;22603;47.900;8.146;2022-10-31T08:09:22;10.90;99.90
36594;DHT22;22603;47.900;8.146;2022-10-31T08:12:09;11.20;99.90
36594;DHT22;22603;47.900;8.146;2022-10-31T08:14:57;11.40;99.90
36594;DHT22;22603;47.900;8.146;2022-10-31T08:17:43;11.30;99.90
36594;DHT22;22603;47.900;8.146;2022-10-31T08:20:30;11.40;99.90
36594;DHT22;22603;47.900;8.146;2022-10-31T08:23:17;11.40;99.90
36594;DHT22;22603;47.900;8.146;2022-10-31T08:26:06;11.50;99.90
36594;DHT22;22603;47.900;8.146;2022-10-31T08:28:53;11.60;99.90
36594;DHT22;22603;47.900;8.146;2022-10-31T08:31:41;11.70;99.90
36594;DHT22;22603;47.900;8.146;2022-10-31T08:34:28;12.10;99.90
36594;DHT22;22603;47.900;8.146;2022-10-31T08:37:15;12.60;99.90
36594;DHT22;22603;47.900;8.146;2022-10-31T08:40:06;12.90;99.90
36594;DHT22;22603;47.900;8.146;2022-10-31T08:42:59;13.00;99.90
36594;DHT22;22603;47.900;8.146;2022-10-31T08:45:48;12.70;99.90
36594;DHT22;22603;47.900;8.146;2022-10-31T08:48:35;12.30;99.90
36594;DHT22;22603;47.900;8.146;2022-10-31T08:51:22;12.30;99.90
36594;DHT22;22603;47.900;8.146;2022-10-31T08:54:09;12.30;99.90
36594;DHT22;22603;47.900;8.146;2022-10-31T08:56:56;12.20;99.90
36594;DHT22;22603;47.900;8.146;2022-10-31T08:59:44;12.10;99.90
36594;DHT22;22603;47.900;8.146;2022-10-31T09:02:32;12.10;99.90
36594;DHT22;22603;47.900;8.146;2022-10-31T09:05:18;12.00;99.90
36594;DHT22;22603;47.900;8.146;2022-10-31T09:08:06;12.20;99.90
36594;DHT22;22603;47.900;8.146;2022-10-31T09:11:00;12.50;99.90
36594;DHT22;22603;47.900;8.146;2022-10-31T09:13:47;12.70;99.90
36594;DHT22;22603;47.900;8.146;2022-10-31T09:16:36;12.90;99.90
36594;DHT22;22603;47.900;8.146;2022-10-31T09:19:23;13.10;99.90
36594;DHT22;22603;47.900;8.146;2022-10-31T09:22:10;13.60;99.90
36594;DHT22;22603;47.900;8.146;2022-10-31T09:24:57;14.40;99.90
36594;DHT22;22603;47.900;8.146;2022-10-31T09:27:44;14.90;99.90
36594;DHT22;22603;47.900;8.146;2022-10-31T09:30:33;15.20;99.90
36594;DHT22;22603;47.900;8.146;2022-10-31T09:33:22;14.30;99.90
36594;DHT22;22603;47.900;8.146;2022-10-31T09:36:09;13.50;99.90
36594;DHT22;22603;47.900;8.146;2022-10-31T09:38:55;13.30;99.90
36594;DHT22;22603;47.900;8.146;2022-10-31T09:42:09;13.40;99.90
36594;DHT22;22603;47.900;8.146;2022-10-31T09:45:03;13.40;99.90
36594;DHT22;22603;47.900;8.146;2022-10-31T09:48:11;13.50;99.90
36594;DHT22;22603;47.900;8.146;2022-10-31T09:51:05;13.60;99.90
36594;DHT22;22603;47.900;8.146;2022-10-31T09:53:55;13.80;99.90
36594;DHT22;22603;47.900;8.146;2022-10-31T09:56:44;14.30;99.90
36594;DHT22;22603;47.900;8.146;2022-10-31T09:59:33;14.50;99.90
36594;DHT22;22603;47.900;8.146;2022-10-31T10:02:25;14.80;99.90
36594;DHT22;22603;47.900;8.146;2022-10-31T10:05:17;15.30;99.90
36594;DHT22;22603;47.900;8.146;2022-10-31T10:08:10;15.50;99.90
36594;DHT22;22603;47.900;8.146;2022-10-31T10:11:06;15.10;99.90
36594;DHT22;22603;47.900;8.146;2022-10-31T10:14:04;14.80;99.90
36594;DHT22;22603;47.900;8.146;2022-10-31T10:17:11;14.70;99.90
36594;DHT22;22603;47.900;8.146;2022-10-31T10:20:17;14.70;99.90
36594;DHT22;22603;47.900;8.146;2022-10-31T10:23:22;14.80;99.90
36594;DHT22;22603;47.900;8.146;2022-10-31T10:26:16;15.10;99.90
36594;DHT22;22603;47.900;8.146;2022-10-31T10:29:17;15.30;99.90
36594;DHT22;22603;47.900;8.146;2022-10-31T10:32:10;15.30;99.90
36594;DHT22;22603;47.900;8.146;2022-10-31T10:35:02;15.30;99.90
36594;DHT22;22603;47.900;8.146;2022-10-31T10:37:55;15.50;99.90
36594;DHT22;22603;47.900;8.146;2022-10-31T10:40:46;15.60;99.90
36594;DHT22;22603;47.900;8.146;2022-10-31T10:43:35;15.50;99.90
36594;DHT22;22603;47.900;8.146;2022-10-31T10:46:29;15.50;99.90
36594;DHT22;22603;47.900;8.146;2022-10-31T10:49:40;15.70;99.90
36594;DHT22;22603;47.900;8.146;2022-10-31T10:52:35;16.00;99.90
36594;DHT22;22603;47.900;8.146;2022-10-31T10:55:35;16.10;99.90
36594;DHT22;22603;47.900;8.146;2022-10-31T10:58:25;16.20;99.90
36594;DHT22;22603;47.900;8.146;2022-10-31T11:01:13;16.20;99.90
36594;DHT22;22603;47.900;8.146;2022-10-31T11:04:29;16.20;99.90
36594;DHT22;22603;47.900;8.146;2022-10-31T11:07:15;16.00;99.90
36594;DHT22;22603;47.900;8.146;2022-10-31T11:10:04;15.80;99.90
36594;DHT22;22603;47.900;8.146;2022-10-31T11:13:05;15.60;99.90
36594;DHT22;22603;47.900;8.146;2022-10-31T11:15:57;15.40;99.90
36594;DHT22;22603;47.900;8.146;2022-10-31T11:18:46;15.40;99.90
36594;DHT22;22603;47.900;8.146;2022-10-31T11:21:34;15.70;99.90
36594;DHT22;22603;47.900;8.146;2022-10-31T11:24:22;15.80;99.90
36594;DHT22;22603;47.900;8.146;2022-10-31T11:27:16;15.70;99.90
36594;DHT22;22603;47.900;8.146;2022-10-31T11:30:09;15.80;99.90
36594;DHT22;22603;47.900;8.146;2022-10-31T11:32:58;16.40;99.90
36594;DHT22;22603;47.900;8.146;2022-10-31T11:35:47;17.20;99.90
36594;DHT22;22603;47.900;8.146;2022-10-31T11:38:43;17.70;99.90
36594;DHT22;22603;47.900;8.146;2022-10-31T11:41:32;18.10;99.90
36594;DHT22;22603;47.900;8.146;2022-10-31T11:44:23;18.10;99.90
36594;DHT22;22603;47.900;8.146;2022-10-31T11:47:13;17.30;99.90
36594;DHT22;22603;47.900;8.146;2022-10-31T11:50:09;17.50;99.90
36594;DHT22;22603;47.900;8.146;2022-10-31T11:52:56;18.00;99.90
36594;DHT22;22603;47.900;8.146;2022-10-31T11:55:45;18.70;99.90
36594;DHT22;22603;47.900;8.146;2022-10-31T11:58:32;19.30;99.90
36594;DHT22;22603;47.900;8.146;2022-10-31T12:01:24;19.30;99.90
36594;DHT22;22603;47.900;8.146;2022-10-31T12:04:12;19.40;99.90
36594;DHT22;22603;47.900;8.146;2022-10-31T12:07:01;19.40;99.90
36594;DHT22;22603;47.900;8.146;2022-10-31T12:09:48;19.50;99.90
36594;DHT22;22603;47.900;8.146;2022-10-31T12:12:54;19.80;99.90
36594;DHT22;22603;47.900;8.146;2022-10-31T12:15:50;20.00;99.90
36594;DHT22;22603;47.900;8.146;2022-10-31T12:18:50;20.00;99.90
36594;DHT22;22603;47.900;8.146;2022-10-31T12:22:02;20.10;99.90
36594;DHT22;22603;47.900;8.146;2022-10-31T12:25:03;19.90;99.90
36594;DHT22;22603;47.900;8.146;2022-10-31T12:28:08;19.10;99.90
36594;DHT22;22603;47.900;8.146;2022-10-31T12:31:07;18.90;99.90
36594;DHT22;22603;47.900;8.146;2022-10-31T12:34:11;19.40;99.90
36594;DHT22;22603;47.900;8.146;2022-10-31T12:37:09;19.80;99.90
36594;DHT22;22603;47.900;8.146;2022-10-31T12:40:11;20.10;99.90
36594;DHT22;22603;47.900;8.146;2022-10-31T12:43:13;20.30;99.90
36594;DHT22;22603;47.900;8.146;2022-10-31T12:46:04;20.40;99.90
36594;DHT22;22603;47.900;8.146;2022-10-31T12:49:14;19.80;99.90
36594;DHT22;22603;47.900;8.146;2022-10-31T12:52:17;19.80;99.90
36594;DHT22;22603;47.900;8.146;2022-10-31T12:55:18;19.90;99.90
36594;DHT22;22603;47.900;8.146;2022-10-31T12:58:16;20.00;99.90
36594;DHT22;22603;47.900;8.146;2022-10-31T13:01:09;19.60;99.90
36594;DHT22;22603;47.900;8.146;2022-10-31T13:04:02;19.60;99.90
36594;DHT22;22603;47.900;8.146;2022-10-31T13:06:52;19.60;99.90
36594;DHT22;22603;47.900;8.146;2022-10-31T13:09:47;19.80;99.90
36594;DHT22;22603;47.900;8.146;2022-10-31T13:12:37;19.60;99.90
36594;DHT22;22603;47.900;8.146;2022-10-31T13:15:27;19.40;99.90
36594;DHT22;22603;47.900;8.146;2022-10-31T13:18:23;19.40;99.90
36594;DHT22;22603;47.900;8.146;2022-10-31T13:21:17;19.50;99.90
36594;DHT22;22603;47.900;8.146;2022-10-31T13:24:11;19.50;99.90
36594;DHT22;22603;47.900;8.146;2022-10-31T13:27:02;19.50;99.90
36594;DHT22;22603;47.900;8.146;2022-10-31T13:30:00;19.50;99.90
36594;DHT22;22603;47.900;8.146;2022-10-31T13:32:51;19.30;99.90
36594;DHT22;22603;47.900;8.146;2022-10-31T13:35:45;19.20;99.90
36594;DHT22;22603;47.900;8.146;2022-10-31T13:38:40;19.20;99.90
36594;DHT22;22603;47.900;8.146;2022-10-31T13:41:35;19.10;99.90
36594;DHT22;22603;47.900;8.146;2022-10-31T13:44:28;18.90;99.90
36594;DHT22;22603;47.900;8.146;2022-10-31T13:47:27;18.80;99.90
36594;DHT22;22603;47.900;8.146;2022-10-31T13:50:22;18.80;99.90
36594;DHT22;22603;47.900;8.146;2022-10-31T13:53:19;18.80;99.90
36594;DHT22;22603;47.900;8.146;2022-10-31T13:56:18;18.90;99.90
36594;DHT22;22603;47.900;8.146;2022-10-31T13:59:19;19.00;99.90
36594;DHT22;22603;47.900;8.146;2022-10-31T14:02:15;19.00;99.90
36594;DHT22;22603;47.900;8.146;2022-10-31T14:05:05;19.00;99.90
36594;DHT22;22603;47.900;8.146;2022-10-31T14:08:01;19.00;99.90
36594;DHT22;22603;47.900;8.146;2022-10-31T14:10:51;18.90;99.90
36594;DHT22;22603;47.900;8.146;2022-10-31T14:13:44;18.80;99.90
36594;DHT22;22603;47.900;8.146;2022-10-31T14:16:31;18.50;99.90
36594;DHT22;22603;47.900;8.146;2022-10-31T14:19:25;18.20;99.90
36594;DHT22;22603;47.900;8.146;2022-10-31T14:22:20;18.10;99.90
36594;DHT22;22603;47.900;8.146;2022-10-31T14:25:25;18.00;99.90
36594;DHT22;22603;47.900;8.146;2022-10-31T14:28:20;17.80;99.90
36594;DHT22;22603;47.900;8.146;2022-10-31T14:31:28;17.60;99.90
36594;DHT22;22603;47.900;8.146;2022-10-31T14:34:25;17.50;99.90
36594;DHT22;22603;47.900;8.146;2022-10-31T14:37:39;17.30;99.90
36594;DHT22;22603;47.900;8.146;2022-10-31T14:40:33;17.20;99.90
36594;DHT22;22603;47.900;8.146;2022-10-31T14:43:35;17.20;99.90
36594;DHT22;22603;47.900;8.146;2022-10-31T14:46:35;17.30;99.90
36594;DHT22;22603;47.900;8.146;2022-10-31T14:49:55;17.20;99.90
36594;DHT22;22603;47.900;8.146;2022-10-31T14:52:53;17.10;99.90
36594;DHT22;22603;47.900;8.146;2022-10-31T14:55:44;17.20;99.90
36594;DHT22;22603;47.900;8.146;2022-10-31T14:58:35;17.40;99.90
36594;DHT22;22603;47.900;8.146;2022-10-31T15:01:27;17.40;99.90
36594;DHT22;22603;47.900;8.146;2022-10-31T15:04:16;17.30;99.90
36594;DHT22;22603;47.900;8.146;2022-10-31T15:07:14;17.00;99.90
36594;DHT22;22603;47.900;8.146;2022-10-31T15:10:20;17.10;99.90
36594;DHT22;22603;47.900;8.146;2022-10-31T15:13:14;17.20;99.90
36594;DHT22;22603;47.900;8.146;2022-10-31T15:16:09;17.20;99.90
36594;DHT22;22603;47.900;8.146;2022-10-31T15:19:00;17.30;99.90
36594;DHT22;22603;47.900;8.146;2022-10-31T15:21:51;17.30;99.90
36594;DHT22;22603;47.900;8.146;2022-10-31T15:24:40;17.30;99.90
36594;DHT22;22603;47.900;8.146;2022-10-31T15:27:28;17.20;99.90
36594;DHT22;22603;47.900;8.146;2022-10-31T15:30:18;17.20;99.90
36594;DHT22;22603;47.900;8.146;2022-10-31T15:33:19;17.00;99.90
36594;DHT22;22603;47.900;8.146;2022-10-31T15:36:17;16.60;99.90
36594;DHT22;22603;47.900;8.146;2022-10-31T15:39:14;16.40;99.90
36594;DHT22;22603;47.900;8.146;2022-10-31T15:42:13;16.10;99.90
36594;DHT22;22603;47.900;8.146;2022-10-31T15:45:02;15.90;99.90
36594;DHT22;22603;47.900;8.146;2022-10-31T15:47:55;15.60;99.90
36594;DHT22;22603;47.900;8.146;2022-10-31T15:50:47;15.40;99.90
36594;DHT22;22603;47.900;8.146;2022-10-31T15:53:41;15.40;99.90
36594;DHT22;22603;47.900;8.146;2022-10-31T15:56:30;15.20;99.90
36594;DHT22;22603;47.900;8.146;2022-10-31T15:59:21;15.10;99.90
36594;DHT22;22603;47.900;8.146;2022-10-31T16:02:10;15.10;99.90
36594;DHT22;22603;47.900;8.146;2022-10-31T16:05:00;14.90;99.90
36594;DHT22;22603;47.900;8.146;2022-10-31T16:07:49;14.80;99.90
36594;DHT22;22603;47.900;8.146;2022-10-31T16:10:36;14.80;99.90
36594;DHT22;22603;47.900;8.146;2022-10-31T16:13:27;14.70;99.90
36594;DHT22;22603;47.900;8.146;2022-10-31T16:16:16;14.60;99.90
36594;DHT22;22603;47.900;8.146;2022-10-31T16:19:22;14.40;99.90
36594;DHT22;22603;47.900;8.146;2022-10-31T16:22:11;14.20;99.90
36594;DHT22;22603;47.900;8.146;2022-10-31T16:25:03;14.10;99.90
36594;DHT22;22603;47.900;8.146;2022-10-31T16:27:53;13.90;99.90
36594;DHT22;22603;47.900;8.146;2022-10-31T16:30:42;13.70;99.90
36594;DHT22;22603;47.900;8.146;2022-10-31T16:33:36;13.60;99.90
36594;DHT22;22603;47.900;8.146;2022-10-31T16:36:31;13.50;99.90
36594;DHT22;22603;47.900;8.146;2022-10-31T16:39:21;13.40;99.90
36594;DHT22;22603;47.900;8.146;2022-10-31T16:42:11;13.40;99.90
36594;DHT22;22603;47.900;8.146;2022-10-31T16:44:58;13.20;99.90
36594;DHT22;22603;47.900;8.146;2022-10-31T16:47:47;13.10;99.90
36594;DHT22;22603;47.900;8.146;2022-10-31T16:50:37;12.90;99.90
36594;DHT22;22603;47.900;8.146;2022-10-31T16:53:24;12.90;99.90
36594;DHT22;22603;47.900;8.146;2022-10-31T16:56:15;12.90;99.90
36594;DHT22;22603;47.900;8.146;2022-10-31T16:59:06;12.80;99.90
36594;DHT22;22603;47.900;8.146;2022-10-31T17:02:01;12.60;99.90
36594;DHT22;22603;47.900;8.146;2022-10-31T17:04:49;12.50;99.90
36594;DHT22;22603;47.900;8.146;2022-10-31T17:07:43;12.30;99.90
36594;DHT22;22603;47.900;8.146;2022-10-31T17:10:30;12.30;99.90
36594;DHT22;22603;47.900;8.146;2022-10-31T17:13:19;12.10;99.90
36594;DHT22;22603;47.900;8.146;2022-10-31T17:16:06;12.00;99.90
36594;DHT22;22603;47.900;8.146;2022-10-31T17:18:53;11.80;99.90
36594;DHT22;22603;47.900;8.146;2022-10-31T17:21:41;11.80;99.90
36594;DHT22;22603;47.900;8.146;2022-10-31T17:24:29;11.80;99.90
36594;DHT22;22603;47.900;8.146;2022-10-31T17:27:16;11.70;99.90
36594;DHT22;22603;47.900;8.146;2022-10-31T17:30:04;11.70;99.90
36594;DHT22;22603;47.900;8.146;2022-10-31T17:32:51;11.60;99.90
36594;DHT22;22603;47.900;8.146;2022-10-31T17:35:39;11.50;99.90
36594;DHT22;22603;47.900;8.146;2022-10-31T17:38:26;11.50;99.90
36594;DHT22;22603;47.900;8.146;2022-10-31T17:41:14;11.50;99.90
36594;DHT22;22603;47.900;8.146;2022-10-31T17:44:01;11.40;99.90
36594;DHT22;22603;47.900;8.146;2022-10-31T17:46:48;11.30;99.90
36594;DHT22;22603;47.900;8.146;2022-10-31T17:49:35;11.20;99.90
36594;DHT22;22603;47.900;8.146;2022-10-31T17:52:21;11.20;99.90
36594;DHT22;22603;47.900;8.146;2022-10-31T17:55:09;11.10;99.90
36594;DHT22;22603;47.900;8.146;2022-10-31T17:57:57;11.10;99.90
36594;DHT22;22603;47.900;8.146;2022-10-31T18:00:44;11.20;99.90
36594;DHT22;22603;47.900;8.146;2022-10-31T18:03:36;11.10;99.90
36594;DHT22;22603;47.900;8.146;2022-10-31T18:06:23;11.10;99.90
36594;DHT22;22603;47.900;8.146;2022-10-31T18:09:10;11.00;99.90
36594;DHT22;22603;47.900;8.146;2022-10-31T18:11:57;10.90;99.90